Time;durP1;ratioP1;P1;durP2;ratioP2;P2;SDS_P1;SDS_P2;PMS_P1;PMS_P2;Temp;Humidity;BMP_temperature;BMP_pressure;BME280_temperature;BME280_humidity;BME280_pressure;Samples;Min_cycle;Max_cycle;Signal;HPM_P1;HPM_P2
2022/12/08 00:01:52;;;;;;;46.60;24.00;;;;;;;3.08;100.00;100615.59;5037127;28;20062;-76
2022/12/08 00:04:17;;;;;;;48.22;26.70;;;;;;;3.87;100.00;100764.34;5039089;28;20052;-75
2022/12/08 00:09:34;;;;;;;61.35;30.08;;;;;;;3.86;100.00;100773.81;5037674;28;20141;-75
2022/12/08 00:12:04;;;;;;;48.75;26.33;;;;;;;3.13;100.00;100638.22;5019649;28;20679;-75
2022/12/08 00:14:31;;;;;;;53.65;27.83;;;;;;;3.26;100.00;100660.28;5043940;28;20128;-75
2022/12/08 00:16:58;;;;;;;50.95;28.70;;;;;;;3.26;100.00;100610.13;5042006;28;20080;-75
2022/12/08 00:19:25;;;;;;;47.35;26.08;;;;;;;3.78;100.00;100713.00;5029374;28;20439;-75
2022/12/08 00:21:51;;;;;;;48.95;29.02;;;;;;;3.42;100.00;100682.44;5047586;28;20056;-74
2022/12/08 00:24:18;;;;;;;58.65;29.17;;;;;;;3.94;100.00;100797.44;5054789;28;20076;-74
2022/12/08 00:26:44;;;;;;;52.70;26.67;;;;;;;2.63;100.00;100588.16;5047116;28;20450;-75
2022/12/08 00:29:10;;;;;;;49.35;27.83;;;;;;;3.19;100.00;100660.91;5029553;28;20049;-73
2022/12/08 00:31:36;;;;;;;66.97;31.15;;;;;;;2.70;100.00;100586.66;5042745;28;20041;-74
2022/12/08 00:34:01;;;;;;;63.22;33.20;;;;;;;2.98;100.00;100644.63;5030249;28;20060;-75
2022/12/08 00:36:27;;;;;;;53.45;26.20;;;;;;;3.88;100.00;100795.50;5040476;28;20037;-75
2022/12/08 00:38:52;;;;;;;65.80;33.42;;;;;;;3.07;100.00;100668.28;5060130;28;20391;-74
2022/12/08 00:44:07;;;;;;;57.25;29.27;;;;;;;3.70;100.00;100772.44;5014487;28;20045;-75
2022/12/08 00:46:33;;;;;;;56.47;29.02;;;;;;;3.73;100.00;100780.31;5041955;28;20508;-74
2022/12/08 00:48:58;;;;;;;59.50;29.77;;;;;;;3.76;100.00;100784.72;5050040;28;20053;-75
2022/12/08 00:51:23;;;;;;;49.92;26.95;;;;;;;3.82;100.00;100761.59;5044801;28;20041;-75
2022/12/08 00:53:49;;;;;;;53.72;28.08;;;;;;;3.46;100.00;100668.72;5048945;28;20041;-75
2022/12/08 00:56:14;;;;;;;51.92;28.35;;;;;;;3.21;100.00;100635.91;5048118;28;20688;-75
2022/12/08 00:58:40;;;;;;;60.55;30.60;;;;;;;3.98;100.00;100753.47;5042682;28;20044;-73
2022/12/08 01:01:10;;;;;;;57.55;32.00;;;;;;;3.83;100.00;100700.16;5044931;28;20049;-74
2022/12/08 01:03:36;;;;;;;52.83;25.15;;;;;;;3.41;100.00;100635.69;5039229;28;20128;-75
2022/12/08 01:06:05;;;;;;;56.35;26.77;;;;;;;4.21;100.00;100749.00;4998704;28;1480173;-74
2022/12/08 01:08:32;;;;;;;46.17;28.23;;;;;;;4.42;100.00;100782.56;5035886;28;20033;-74
2022/12/08 01:11:06;;;;;;;54.65;31.55;;;;;;;4.52;100.00;100781.09;5042723;28;20061;-74
2022/12/08 01:13:32;;;;;;;56.30;30.27;;;;;;;4.52;100.00;100780.19;5037017;28;20481;-74
2022/12/08 01:15:58;;;;;;;66.32;30.02;;;;;;;4.56;100.00;100776.88;5038409;28;20107;-75
2022/12/08 01:18:23;;;;;;;57.63;32.80;;;;;;;4.43;100.00;100741.84;5040403;28;20053;-75
2022/12/08 01:20:49;;;;;;;59.78;30.27;;;;;;;3.96;100.00;100661.66;5032471;28;20290;-74
2022/12/08 01:23:14;;;;;;;54.78;29.33;;;;;;;4.37;100.00;100759.84;5045195;28;20029;-76
2022/12/08 01:25:40;;;;;;;60.40;32.03;;;;;;;3.76;100.00;100648.06;5041799;28;20466;-75
2022/12/08 01:28:05;;;;;;;57.22;30.15;;;;;;;3.87;100.00;100666.56;5023952;28;20056;-75
2022/12/08 01:30:30;;;;;;;57.10;32.25;;;;;;;3.69;100.00;100640.91;5040618;28;20108;-75
2022/12/08 01:32:56;;;;;;;56.53;33.25;;;;;;;3.93;100.00;100658.06;5041815;28;21877;-75
2022/12/08 01:35:21;;;;;;;64.07;31.58;;;;;;;3.92;100.00;100646.81;5046451;28;20118;-75
2022/12/08 01:37:49;;;;;;;51.03;25.92;;;;;;;4.39;100.00;100724.41;5044310;28;20064;-75
2022/12/08 01:40:14;;;;;;;57.65;31.20;;;;;;;4.60;100.00;100758.81;5040410;28;20234;-75
2022/12/08 01:42:40;;;;;;;55.10;29.20;;;;;;;4.41;100.00;100730.53;5044548;28;20551;-74
2022/12/08 01:45:26;;;;;;;77.50;34.28;;;;;;;3.87;100.00;100632.81;5042960;28;20091;-75
2022/12/08 01:47:59;;;;;;;62.42;32.05;;;;;;;4.54;100.00;100748.25;5040656;28;20044;-75
2022/12/08 01:50:26;;;;;;;60.47;29.23;;;;;;;3.99;100.00;100666.06;5045356;28;20106;-75
2022/12/08 01:53:07;;;;;;;61.05;33.88;;;;;;;4.51;100.00;100799.25;5040183;28;20051;-75
2022/12/08 01:55:42;;;;;;;54.38;29.92;;;;;;;4.40;100.00;100759.94;5044724;28;20056;-75
2022/12/08 01:58:19;;;;;;;58.25;27.45;;;;;;;4.61;100.00;100794.38;5043491;28;20041;-75
2022/12/08 02:00:46;;;;;;;54.75;29.65;;;;;;;3.75;100.00;100650.63;5029453;28;20453;-74
2022/12/08 02:03:21;;;;;;;57.90;30.48;;;;;;;3.91;100.00;100671.03;5043521;28;20034;-75
2022/12/08 02:05:47;;;;;;;63.15;28.83;;;;;;;3.75;100.00;100642.84;5041250;28;20408;-75
2022/12/08 02:08:13;;;;;;;54.22;28.67;;;;;;;4.42;100.00;100740.97;5040634;28;20056;-76
2022/12/08 02:10:41;;;;;;;64.68;33.42;;;;;;;4.28;100.00;100703.28;5039710;28;20567;-75
2022/12/08 02:13:14;;;;;;;65.80;33.30;;;;;;;4.55;100.00;100773.41;5045306;28;20050;-74
2022/12/08 02:16:20;;;;;;;53.50;33.23;;;;;;;4.58;100.00;100764.81;5031721;28;20452;-75
2022/12/08 02:18:45;;;;;;;57.15;31.42;;;;;;;4.77;100.00;100772.31;5039431;28;20057;-74
2022/12/08 02:21:38;;;;;;;53.50;32.53;;;;;;;3.93;100.00;100638.22;5038693;28;20063;-74
2022/12/08 02:24:09;;;;;;;57.90;33.90;;;;;;;4.70;100.00;100756.50;5039430;28;20396;-74
2022/12/08 02:26:59;;;;;;;64.72;32.70;;;;;;;3.69;100.00;100578.63;5042667;28;20048;-75
2022/12/08 02:29:45;;;;;;;65.43;32.72;;;;;;;4.74;100.00;100747.97;5040876;28;20053;-75
2022/12/08 02:32:54;;;;;;;69.32;34.47;;;;;;;3.80;100.00;100612.72;5040901;28;20048;-75
2022/12/08 02:35:20;;;;;;;59.85;31.33;;;;;;;4.14;100.00;100657.84;5031157;28;20119;-76
2022/12/08 02:37:45;;;;;;;67.88;33.38;;;;;;;4.85;100.00;100775.16;5040344;28;20658;-75
2022/12/08 02:40:14;;;;;;;60.00;33.20;;;;;;;4.89;100.00;100770.91;5027327;28;20049;-76
2022/12/08 02:42:46;;;;;;;61.55;32.53;;;;;;;4.67;100.00;100753.81;5051377;28;20041;-76
2022/12/08 02:45:23;;;;;;;65.82;34.80;;;;;;;4.75;100.00;100757.50;5049081;28;20057;-75
2022/12/08 02:47:50;;;;;;;66.97;33.10;;;;;;;4.85;100.00;100782.94;5051235;28;20032;-74
2022/12/08 02:50:16;;;;;;;62.92;31.65;;;;;;;4.29;100.00;100665.22;5045080;28;20709;-74
2022/12/08 02:52:45;;;;;;;70.57;35.42;;;;;;;4.96;100.00;100789.31;5048534;28;20045;-75
2022/12/08 02:55:14;;;;;;;62.22;31.45;;;;;;;4.14;100.00;100658.72;5029025;28;20131;-74
2022/12/08 02:57:54;;;;;;;64.30;29.20;;;;;;;4.98;100.00;100797.16;5016688;28;20041;-74
2022/12/08 03:00:22;;;;;;;51.53;28.90;;;;;;;4.51;100.00;100703.09;5054642;28;20484;-76
2022/12/08 03:03:06;;;;;;;55.00;30.55;;;;;;;5.06;100.00;100813.91;5028390;28;20036;-73
2022/12/08 03:06:17;;;;;;;57.90;30.83;;;;;;;5.14;100.00;100798.50;5050405;28;20073;-75
2022/12/08 03:08:49;;;;;;;56.92;27.95;;;;;;;5.21;100.00;100808.22;4987302;28;20068;-74
2022/12/08 03:11:29;;;;;;;69.93;34.00;;;;;;;4.83;100.00;100769.03;5044874;28;20067;-74
2022/12/08 03:13:59;;;;;;;61.17;33.58;;;;;;;4.53;100.00;100715.31;5057722;28;20147;-75
2022/12/08 03:16:27;;;;;;;78.25;35.00;;;;;;;5.13;100.00;100807.13;5040382;28;20044;-75
2022/12/08 03:19:02;;;;;;;60.80;29.58;;;;;;;4.68;100.00;100729.56;5046775;28;20054;-75
2022/12/08 03:21:31;;;;;;;59.78;28.00;;;;;;;4.61;100.00;100775.28;5030238;28;20061;-76
2022/12/08 03:23:58;;;;;;;64.07;33.60;;;;;;;4.35;100.00;100790.09;5050025;28;20045;-75
2022/12/08 03:26:38;;;;;;;61.42;31.85;;;;;;;4.70;100.00;100787.69;5051387;28;20037;-76
2022/12/08 03:29:04;;;;;;;68.47;36.38;;;;;;;4.17;100.00;100676.13;5043194;28;20055;-75
2022/12/08 03:31:35;;;;;;;68.78;33.30;;;;;;;4.26;100.00;100672.91;5032217;28;20041;-76
2022/12/08 03:34:02;;;;;;;60.75;32.65;;;;;;;4.77;100.00;100816.50;5049242;28;20484;-76
2022/12/08 03:36:27;;;;;;;65.30;32.25;;;;;;;4.59;100.00;100810.78;5031242;28;20091;-75
2022/12/08 03:38:53;;;;;;;61.55;30.17;;;;;;;4.10;100.00;100718.34;5047414;28;20033;-76
2022/12/08 03:41:21;;;;;;;61.47;33.22;;;;;;;4.74;100.00;100815.53;5041653;28;20034;-76
2022/12/08 03:43:56;;;;;;;70.90;36.80;;;;;;;4.25;100.00;100778.53;5048564;28;20048;-77
2022/12/08 03:46:23;;;;;;;82.25;36.47;;;;;;;3.38;100.00;100611.41;5022263;28;20091;-77
2022/12/08 03:48:49;;;;;;;78.30;39.05;;;;;;;4.04;100.00;100783.03;5039191;28;20415;-75
2022/12/08 03:51:15;;;;;;;84.82;39.30;;;;;;;3.78;100.00;100738.94;5040554;28;20045;-76
2022/12/08 03:53:41;;;;;;;76.65;35.63;;;;;;;3.76;100.00;100745.78;5050400;28;20033;-75
2022/12/08 03:56:34;;;;;;;90.90;42.00;;;;;;;4.26;100.00;100819.28;5044821;28;20412;-75
2022/12/08 03:59:00;;;;;;;87.20;42.20;;;;;;;3.91;100.00;100810.31;5033337;28;20046;-73
2022/12/08 04:01:26;;;;;;;80.57;35.65;;;;;;;3.50;100.00;100706.91;5023489;28;20535;-75
2022/12/08 04:03:52;;;;;;;93.55;43.78;;;;;;;3.52;100.00;100745.88;5045054;28;20147;-75
2022/12/08 04:06:18;;;;;;;97.20;40.08;;;;;;;3.91;100.00;100828.47;5045595;28;20071;-75
2022/12/08 04:08:43;;;;;;;97.00;37.83;;;;;;;3.61;100.00;100763.47;5044419;28;20704;-76
2022/12/08 04:11:09;;;;;;;111.60;49.30;;;;;;;2.98;100.00;100679.19;5035777;28;20056;-75
2022/12/08 04:13:37;;;;;;;101.93;40.63;;;;;;;3.93;100.00;100832.00;5061174;28;20048;-74
2022/12/08 04:16:03;;;;;;;96.35;41.03;;;;;;;3.80;100.00;100804.78;5052880;28;20804;-74
2022/12/08 04:18:29;;;;;;;107.45;43.55;;;;;;;3.81;100.00;100807.41;5046648;28;20501;-76
2022/12/08 04:20:54;;;;;;;104.72;45.17;;;;;;;2.87;100.00;100663.25;5041359;28;20052;-74
2022/12/08 04:23:20;;;;;;;95.22;39.83;;;;;;;3.52;100.00;100745.88;5040755;28;20481;-73
2022/12/08 04:25:45;;;;;;;103.68;42.80;;;;;;;3.95;100.00;100827.75;5035393;28;20385;-76
2022/12/08 04:28:11;;;;;;;82.45;41.85;;;;;;;3.90;100.00;100800.75;5044253;28;20381;-75
2022/12/08 04:30:37;;;;;;;103.97;45.85;;;;;;;3.62;100.00;100711.59;5038345;28;20094;-73
2022/12/08 04:33:03;;;;;;;85.28;40.88;;;;;;;4.10;100.00;100830.88;5049072;28;20033;-73
2022/12/08 04:35:28;;;;;;;104.13;47.53;;;;;;;4.50;100.00;100880.66;5042329;28;20037;-73
2022/12/08 04:37:54;;;;;;;121.55;47.08;;;;;;;4.07;100.00;100828.16;5048920;28;20095;-74
2022/12/08 04:40:19;;;;;;;103.40;39.97;;;;;;;4.15;100.00;100855.28;5050024;28;20484;-75
2022/12/08 04:42:45;;;;;;;105.60;41.03;;;;;;;3.69;100.00;100739.50;5046074;28;20071;-73
2022/12/08 04:45:10;;;;;;;100.25;44.25;;;;;;;4.28;100.00;100858.25;5045781;28;20941;-74
2022/12/08 04:47:36;;;;;;;95.03;40.80;;;;;;;3.32;100.00;100714.94;5052473;28;20391;-74
2022/12/08 04:50:03;;;;;;;93.10;40.22;;;;;;;3.97;100.00;100841.66;5045639;28;20045;-74
2022/12/08 04:52:29;;;;;;;104.88;41.33;;;;;;;3.58;100.00;100743.47;5045302;28;20048;-73
2022/12/08 04:54:54;;;;;;;105.22;44.75;;;;;;;3.19;100.00;100670.41;5048276;28;20052;-74
2022/12/08 04:57:20;;;;;;;109.18;42.58;;;;;;;3.51;100.00;100687.00;5043370;28;20779;-74
2022/12/08 04:59:45;;;;;;;118.75;45.22;;;;;;;3.91;100.00;100812.91;5050027;28;20045;-73
2022/12/08 05:02:12;;;;;;;90.93;41.13;;;;;;;4.04;100.00;100809.88;5041861;28;20057;-73
2022/12/08 05:04:37;;;;;;;103.00;41.15;;;;;;;3.61;100.00;100707.25;5031882;28;20049;-73
2022/12/08 05:07:03;;;;;;;91.68;39.17;;;;;;;4.02;100.00;100864.34;5044905;28;20052;-75
2022/12/08 05:09:28;;;;;;;132.20;46.85;;;;;;;3.21;100.00;100708.53;5044419;28;20423;-74
2022/12/08 05:11:54;;;;;;;90.93;44.45;;;;;;;3.21;100.00;100705.94;5047749;28;20075;-75
2022/12/08 05:14:20;;;;;;;112.30;41.58;;;;;;;3.40;100.00;100702.25;5059864;28;20029;-75
2022/12/08 05:16:46;;;;;;;100.03;41.92;;;;;;;3.99;100.00;100819.25;5042091;28;20045;-74
2022/12/08 05:19:13;;;;;;;108.75;42.92;;;;;;;3.97;100.00;100839.06;5041379;28;20054;-74
2022/12/08 05:21:38;;;;;;;135.98;46.80;;;;;;;4.07;100.00;100853.25;5044740;28;20052;-74
2022/12/08 05:24:04;;;;;;;104.50;42.75;;;;;;;4.17;100.00;100839.75;5043728;28;20049;-74
2022/12/08 05:26:30;;;;;;;87.95;43.33;;;;;;;4.39;100.00;100860.38;5041444;28;20415;-74
2022/12/08 05:28:55;;;;;;;88.10;41.58;;;;;;;3.32;100.00;100698.50;5047320;28;20468;-74
2022/12/08 05:31:21;;;;;;;110.03;43.45;;;;;;;4.14;100.00;100845.69;5047465;28;20097;-75
2022/12/08 05:33:48;;;;;;;102.00;43.05;;;;;;;4.33;100.00;100867.09;5041187;28;20053;-74
2022/12/08 05:36:15;;;;;;;114.60;41.30;;;;;;;3.95;100.00;100801.78;5045448;28;21055;-74
2022/12/08 05:38:41;;;;;;;93.00;42.30;;;;;;;4.28;100.00;100840.94;5024671;28;20083;-75
2022/12/08 05:41:08;;;;;;;139.57;45.88;;;;;;;3.40;100.00;100733.38;5049905;28;20549;-75
2022/12/08 05:43:33;;;;;;;103.57;39.65;;;;;;;4.21;100.00;100867.56;5047283;28;20095;-75
2022/12/08 05:45:59;;;;;;;113.55;46.30;;;;;;;3.52;100.00;100730.31;5038962;28;20049;-73
2022/12/08 05:48:24;;;;;;;92.15;47.40;;;;;;;4.65;100.00;100886.31;5049292;28;20489;-74
2022/12/08 05:50:50;;;;;;;92.35;45.53;;;;;;;4.65;100.00;100892.38;5057544;28;20755;-75
2022/12/08 05:53:17;;;;;;;130.82;47.65;;;;;;;3.68;100.00;100758.53;5056609;28;20051;-75
2022/12/08 05:55:43;;;;;;;121.38;50.88;;;;;;;4.35;100.00;100889.69;5051906;28;20051;-75
2022/12/08 05:58:18;;;;;;;97.53;45.03;;;;;;;3.77;100.00;100756.25;5029233;28;20052;-75
2022/12/08 06:00:45;;;;;;;111.50;44.90;;;;;;;4.51;100.00;100905.78;5039938;28;20044;-75
2022/12/08 06:03:12;;;;;;;96.95;41.58;;;;;;;4.61;100.00;100876.63;5051245;28;20092;-75
2022/12/08 06:05:39;;;;;;;96.80;42.17;;;;;;;4.01;100.00;100761.34;5039029;28;20136;-75
2022/12/08 06:08:05;;;;;;;107.43;42.75;;;;;;;4.71;100.00;100903.84;5026092;28;20057;-76
2022/12/08 06:10:30;;;;;;;124.47;47.65;;;;;;;4.41;100.00;100889.00;5025599;28;20084;-75
2022/12/08 06:12:56;;;;;;;103.25;49.95;;;;;;;4.14;100.00;100871.66;5017377;28;20042;-75
2022/12/08 06:15:21;;;;;;;107.43;51.40;;;;;;;3.56;100.00;100760.72;5032918;28;20508;-75
2022/12/08 06:17:47;;;;;;;111.63;46.40;;;;;;;3.45;100.00;100746.50;5029412;28;20040;-74
2022/12/08 06:20:12;;;;;;;116.72;45.25;;;;;;;4.52;100.00;100933.50;5010556;28;20061;-75
2022/12/08 06:22:38;;;;;;;120.00;45.28;;;;;;;3.58;100.00;100759.94;5039300;28;20123;-75
2022/12/08 06:25:04;;;;;;;119.80;42.35;;;;;;;3.65;100.00;100775.69;5031060;28;20057;-75
2022/12/08 06:27:30;;;;;;;92.07;40.60;;;;;;;4.34;100.00;100928.63;5025902;28;20061;-76
2022/12/08 06:29:55;;;;;;;103.38;42.53;;;;;;;3.41;100.00;100784.41;5020509;28;20751;-76
2022/12/08 06:32:21;;;;;;;125.80;46.92;;;;;;;4.17;100.00;100918.53;5021953;28;20487;-75
2022/12/08 06:34:46;;;;;;;103.25;51.63;;;;;;;4.18;100.00;100914.22;5019537;28;20057;-74
2022/12/08 06:37:12;;;;;;;96.88;49.40;;;;;;;3.83;100.00;100810.06;5023447;28;20164;-76
2022/12/08 06:39:37;;;;;;;126.00;43.80;;;;;;;4.00;100.00;100888.50;5019974;28;20527;-74
2022/12/08 06:44:47;;;;;;;82.80;41.17;;;;;;;4.60;100.00;100937.25;5028158;28;20072;-75
2022/12/08 06:47:12;;;;;;;91.30;47.30;;;;;;;3.89;100.00;100823.25;5022611;28;20133;-74
2022/12/08 06:49:38;;;;;;;150.50;49.28;;;;;;;4.32;100.00;100949.34;5021042;28;20547;-75
2022/12/08 06:52:03;;;;;;;92.57;37.63;;;;;;;4.34;100.00;100967.59;5018127;28;20120;-74
2022/12/08 06:54:29;;;;;;;123.15;41.42;;;;;;;3.72;100.00;100837.34;5016833;28;20358;-74
2022/12/08 06:56:55;;;;;;;99.13;39.85;;;;;;;4.70;100.00;100977.44;5027349;28;20564;-73
2022/12/08 06:59:20;;;;;;;134.07;44.33;;;;;;;3.81;100.00;100822.97;5000932;28;20034;-76
2022/12/08 07:01:46;;;;;;;102.30;39.55;;;;;;;4.42;100.00;100971.31;5017366;28;20057;-73
2022/12/08 07:04:11;;;;;;;100.47;38.00;;;;;;;4.41;100.00;100966.97;5020555;28;20064;-73
2022/12/08 07:06:37;;;;;;;109.68;40.60;;;;;;;2.94;100.00;100698.94;5038723;28;20052;-73
2022/12/08 07:09:03;;;;;;;121.05;43.17;;;;;;;4.09;100.00;100924.28;5036701;28;20536;-73
2022/12/08 07:11:28;;;;;;;75.97;37.13;;;;;;;4.10;100.00;100934.75;5044267;28;20093;-74
2022/12/08 07:13:57;;;;;;;120.93;36.22;;;;;;;3.93;100.00;100915.09;5030796;28;20539;-76
2022/12/08 07:16:23;;;;;;;86.15;39.63;;;;;;;2.11;100.00;100626.00;5031723;28;20045;-74
2022/12/08 07:18:49;;;;;;;101.85;39.42;;;;;;;3.52;100.00;100814.19;5046541;28;20468;-74
2022/12/08 07:21:16;;;;;;;89.63;36.92;;;;;;;4.10;100.00;100965.91;5026880;28;20160;-75
2022/12/08 07:23:44;;;;;;;95.22;35.97;;;;;;;4.28;100.00;100995.94;5030449;28;20464;-75
2022/12/08 07:26:11;;;;;;;74.15;35.35;;;;;;;4.12;100.00;100969.44;5047766;28;20068;-75
2022/12/08 07:28:38;;;;;;;84.90;35.85;;;;;;;4.30;100.00;101005.53;5051763;28;20081;-74
2022/12/08 07:31:05;;;;;;;89.47;38.63;;;;;;;4.37;100.00;100980.66;5046004;28;20053;-74
2022/12/08 07:33:32;;;;;;;94.18;38.30;;;;;;;4.14;100.00;100926.19;5040377;28;20067;-75
2022/12/08 07:36:03;;;;;;;86.25;37.15;;;;;;;4.49;100.00;101000.97;5030979;28;20044;-74
2022/12/08 07:38:29;;;;;;;82.57;39.85;;;;;;;4.22;100.00;100961.13;5037754;28;20135;-74
2022/12/08 07:40:55;;;;;;;76.18;36.10;;;;;;;4.29;100.00;100974.34;5055415;28;20060;-74
2022/12/08 07:43:22;;;;;;;75.53;36.38;;;;;;;4.48;100.00;101009.63;5033463;28;20257;-75
2022/12/08 07:45:49;;;;;;;86.95;35.95;;;;;;;4.12;100.00;100901.91;5028334;28;20839;-75
2022/12/08 07:48:15;;;;;;;70.47;38.10;;;;;;;4.58;100.00;101001.31;5027123;28;20460;-72
2022/12/08 07:50:40;;;;;;;85.97;37.53;;;;;;;3.71;100.00;100882.31;5042881;28;20051;-73
2022/12/08 07:53:06;;;;;;;86.57;40.67;;;;;;;4.31;100.00;100993.44;5038653;28;20072;-73
2022/12/08 07:55:32;;;;;;;93.13;41.90;;;;;;;4.38;100.00;100992.84;5041216;28;20456;-73
2022/12/08 07:57:58;;;;;;;93.90;38.70;;;;;;;3.80;100.00;100880.91;5040857;28;20160;-74
2022/12/08 08:00:24;;;;;;;85.65;39.80;;;;;;;4.70;100.00;101001.69;5036023;28;20408;-74
2022/12/08 08:02:49;;;;;;;116.22;43.90;;;;;;;3.98;100.00;100862.50;5046409;28;20055;-73
2022/12/08 08:05:15;;;;;;;186.00;49.60;;;;;;;4.58;100.00;100964.91;5040121;28;20493;-74
2022/12/08 08:07:42;;;;;;;82.00;38.90;;;;;;;4.22;100.00;100955.06;5033881;28;20049;-71
2022/12/08 08:10:09;;;;;;;108.88;40.63;;;;;;;3.56;100.00;100856.72;5033468;28;20770;-73
2022/12/08 08:12:35;;;;;;;105.70;44.70;;;;;;;4.55;100.00;100981.28;5042808;28;20056;-72
2022/12/08 08:15:01;;;;;;;99.35;39.75;;;;;;;4.30;100.00;100997.75;5029375;28;20473;-72
2022/12/08 08:17:27;;;;;;;88.35;36.05;;;;;;;4.41;100.00;101013.72;5026942;28;20078;-73
2022/12/08 08:19:53;;;;;;;100.15;39.83;;;;;;;4.40;100.00;101004.13;5044016;28;20045;-73
2022/12/08 08:22:18;;;;;;;69.88;35.90;;;;;;;3.82;100.00;100849.84;5048934;28;20471;-74
2022/12/08 08:24:44;;;;;;;84.03;33.33;;;;;;;4.67;100.00;100986.00;5057118;28;20045;-74
2022/12/08 08:27:09;;;;;;;73.07;31.92;;;;;;;4.23;100.00;100949.03;5052832;28;20046;-72
2022/12/08 08:29:35;;;;;;;68.55;31.20;;;;;;;3.65;100.00;100856.13;5046912;28;20040;-73
2022/12/08 08:32:00;;;;;;;65.32;31.08;;;;;;;4.48;100.00;101001.84;5041398;28;20596;-73
2022/12/08 08:34:27;;;;;;;58.30;30.98;;;;;;;4.55;100.00;100999.47;5043490;28;20555;-73
2022/12/08 08:36:52;;;;;;;64.32;28.35;;;;;;;3.99;100.00;100876.34;5035417;28;20489;-73
2022/12/08 08:39:18;;;;;;;80.60;39.42;;;;;;;4.05;100.00;100854.91;5056262;28;20056;-73
2022/12/08 08:41:43;;;;;;;75.90;32.65;;;;;;;3.97;100.00;100855.53;5046942;28;20753;-74
2022/12/08 08:44:09;;;;;;;64.80;29.52;;;;;;;4.69;100.00;100966.16;5038458;28;20046;-73
2022/12/08 08:46:34;;;;;;;57.72;27.00;;;;;;;3.97;100.00;100829.56;5040052;28;20078;-74
2022/12/08 08:49:00;;;;;;;61.45;30.10;;;;;;;5.22;100.00;100964.38;5041645;28;20551;-73
2022/12/08 08:51:27;;;;;;;56.17;29.00;;;;;;;4.94;100.00;100938.31;5043817;28;20056;-73
2022/12/08 08:53:52;;;;;;;73.60;33.30;;;;;;;4.12;100.00;100791.94;5033081;28;20037;-75
2022/12/08 08:56:19;;;;;;;65.75;32.50;;;;;;;4.73;100.00;100852.75;5039497;28;20056;-73
2022/12/08 08:58:47;;;;;;;61.83;30.73;;;;;;;4.67;100.00;100883.78;5051796;28;20041;-74
2022/12/08 09:01:24;;;;;;;57.10;32.53;;;;;;;5.42;100.00;100953.69;5014496;28;20436;-83
2022/12/08 09:03:50;;;;;;;55.53;31.67;;;;;;;5.28;100.00;100950.66;5033821;28;20107;-75
2022/12/08 09:06:16;;;;;;;63.08;32.03;;;;;;;5.03;100.00;100951.63;5044737;28;20062;-76
2022/12/08 09:08:43;;;;;;;60.00;30.55;;;;;;;4.51;100.00;100825.22;5049882;28;20108;-75
2022/12/08 09:11:08;;;;;;;67.85;30.38;;;;;;;5.24;100.00;100951.41;5055524;28;20044;-75
2022/12/08 09:13:34;;;;;;;71.63;34.08;;;;;;;4.46;100.00;100825.09;5031970;28;20104;-74
2022/12/08 09:16:02;;;;;;;61.53;33.42;;;;;;;4.91;100.00;100905.31;5044989;28;20054;-75
2022/12/08 09:18:28;;;;;;;70.18;34.63;;;;;;;5.54;100.00;100958.34;5048021;28;20095;-75
2022/12/08 09:20:54;;;;;;;69.05;35.45;;;;;;;4.92;100.00;100826.50;5042022;28;20494;-75
2022/12/08 09:23:19;;;;;;;60.55;31.42;;;;;;;5.44;100.00;100968.50;5051815;28;20056;-76
2022/12/08 09:25:45;;;;;;;55.40;32.88;;;;;;;5.75;100.00;100956.38;5046010;28;20063;-76
2022/12/08 09:28:11;;;;;;;63.40;34.15;;;;;;;5.82;100.00;100958.31;5053511;28;20095;-77
2022/12/08 09:30:37;;;;;;;60.47;30.33;;;;;;;5.78;100.00;100955.56;5056117;28;20040;-75
2022/12/08 09:33:03;;;;;;;59.83;31.92;;;;;;;5.55;100.00;100919.38;5059905;28;20045;-75
2022/12/08 09:35:28;;;;;;;56.28;28.95;;;;;;;5.47;100.00;100939.06;5059923;28;20044;-75
2022/12/08 09:37:54;;;;;;;46.47;31.83;;;;;;;5.47;100.00;100924.34;5063215;28;20044;-75
2022/12/08 09:40:23;;;;;;;58.47;31.05;;;;;;;5.00;100.00;100830.19;5038470;28;20053;-76
2022/12/08 09:43:00;;;;;;;59.63;30.42;;;;;;;5.60;100.00;100937.72;5019068;28;20151;-74
2022/12/08 09:45:32;;;;;;;60.30;34.33;;;;;;;5.06;100.00;100811.28;5046010;28;20160;-76
2022/12/08 09:48:06;;;;;;;47.63;28.40;;;;;;;5.53;100.00;100917.56;5067906;28;20070;-76
2022/12/08 09:50:44;;;;;;;65.07;33.20;;;;;;;5.79;100.00;100898.34;5034503;28;20037;-75
2022/12/08 09:53:24;;;;;;;50.15;29.33;;;;;;;5.06;100.00;100811.28;5040813;28;20758;-76
2022/12/08 09:55:54;;;;;;;72.15;31.35;;;;;;;5.03;100.00;100779.97;5044056;28;21944;-76
2022/12/08 09:58:28;;;;;;;57.20;31.40;;;;;;;5.76;100.00;100902.56;5053631;28;20049;-75
2022/12/08 10:00:54;;;;;;;61.03;32.65;;;;;;;5.80;100.00;100887.06;5032666;28;20123;-73
2022/12/08 10:03:23;;;;;;;61.85;34.97;;;;;;;5.11;100.00;100755.06;5061859;28;20049;-72
2022/12/08 10:06:03;;;;;;;46.35;29.52;;;;;;;4.98;100.00;100721.75;5053966;28;20075;-76
2022/12/08 10:08:42;;;;;;;45.05;25.85;;;;;;;5.82;100.00;100855.88;5033355;28;20026;-75
2022/12/08 10:11:16;;;;;;;59.13;27.55;;;;;;;6.09;100.00;100868.78;5046940;28;20068;-75
2022/12/08 10:13:56;;;;;;;53.67;26.65;;;;;;;6.09;100.00;100877.47;5031546;28;20094;-76
2022/12/08 10:16:32;;;;;;;46.35;28.00;;;;;;;6.60;100.00;100875.22;5051692;28;20059;-76
2022/12/08 10:19:09;;;;;;;52.38;30.17;;;;;;;5.92;100.00;100746.78;5046116;28;20119;-77
2022/12/08 10:21:35;;;;;;;39.83;26.85;;;;;;;6.65;100.00;100871.88;5039144;28;20049;-76
2022/12/08 10:24:04;;;;;;;51.70;28.10;;;;;;;6.46;100.00;100833.16;5053780;28;20071;-78
2022/12/08 10:26:31;;;;;;;48.53;28.13;;;;;;;6.22;100.00;100828.25;5041127;28;20140;-76
2022/12/08 10:29:01;;;;;;;41.45;25.90;;;;;;;6.28;100.00;100851.88;5053036;28;20048;-77
2022/12/08 10:31:29;;;;;;;44.22;26.10;;;;;;;5.33;100.00;100719.22;5056399;28;20080;-76
2022/12/08 10:34:14;;;;;;;51.33;30.15;;;;;;;5.55;100.00;100750.19;5059489;28;20055;-76
2022/12/08 10:36:49;;;;;;;49.45;27.40;;;;;;;5.82;100.00;100841.13;5045184;28;20105;-77
2022/12/08 10:39:44;;;;;;;44.53;31.02;;;;;;;5.86;100.00;100836.88;5020255;28;20512;-77
2022/12/08 10:42:13;;;;;;;42.83;27.55;;;;;;;5.84;100.00;100829.03;5045155;28;20833;-77
2022/12/08 10:45:01;;;;;;;46.97;30.52;;;;;;;5.78;100.00;100826.25;5039679;28;20096;-78
2022/12/08 10:47:29;;;;;;;49.10;29.20;;;;;;;5.71;100.00;100780.06;5038841;28;20048;-75
2022/12/08 10:50:17;;;;;;;50.97;28.75;;;;;;;6.16;100.00;100828.09;5029223;28;20049;-77
2022/12/08 10:52:43;;;;;;;41.50;25.02;;;;;;;5.98;100.00;100819.00;5039979;28;20496;-76
2022/12/08 10:55:17;;;;;;;57.80;30.75;;;;;;;5.33;100.00;100701.00;5045570;28;20045;-76
2022/12/08 10:57:42;;;;;;;44.03;28.20;;;;;;;5.33;100.00;100693.22;5020190;28;20099;-74
2022/12/08 11:00:16;;;;;;;53.35;31.27;;;;;;;5.70;100.00;100719.31;5045728;28;20053;-73
2022/12/08 11:02:58;;;;;;;63.15;30.52;;;;;;;5.67;100.00;100807.75;5039157;28;20041;-77
2022/12/08 11:05:29;;;;;;;42.90;25.52;;;;;;;5.23;100.00;100720.72;5046889;28;20143;-77
2022/12/08 11:07:55;;;;;;;48.70;28.58;;;;;;;5.68;100.00;100806.03;5050427;28;20037;-77
2022/12/08 11:10:31;;;;;;;46.58;27.60;;;;;;;6.07;100.00;100828.78;5039316;28;20178;-76
2022/12/08 11:13:00;;;;;;;41.20;23.13;;;;;;;6.09;100.00;100825.34;5038523;28;20139;-77
2022/12/08 11:15:33;;;;;;;48.40;25.80;;;;;;;5.08;100.00;100698.66;5041669;28;20063;-76
2022/12/08 11:18:01;;;;;;;;;;;;;;;5.84;100.00;100829.03;5036751;28;20155;-78
2022/12/08 11:20:27;;;;;;;43.50;28.02;;;;;;;5.89;100.00;100817.00;5046913;28;19916;-77
2022/12/08 11:22:55;;;;;;;41.28;26.35;;;;;;;5.69;100.00;100790.47;5037575;28;20184;-75